Airfield :
LOGIN :

Register | Disclaimer

   EN    FR    IT 

 










Legend :    VFR   Marginal VFR   IFR   Intensive IFR   Very Intensive IFR
Visi :
Ceiling :
>= 8 km
>= 3000ft
5 to 8 km
1000 to 3000 ft
1500m to 5 km
500 to 1000 ft
800 to 1500m
200 to 500 ft
< 800m
< 200 ft
Symbols :   Thunderstorms  Fog  Heavy snow  Heavy precipitations  Wind > 20 kt
SIGMETs :     Misc.  Thunderstorms  Icing  Turbulence  Mountain Waves  Volcanic Ashes






- Airport Elevation : 3 ft
- IATA code : LWR


EHLW - Leuuwarden Air Base

CURRENT METAR :
  • 221425Z AUTO 08004KT 360V160 9999 SCT045 BKN050 BKN057 19/10 Q1014 BLU

EXPIRED METARs :
  • 221355Z AUTO 18007KT 9999 BKN270 19/09 Q1014 BLU
  • 221325Z AUTO 15005KT 140V260 9999 OVC290 19/06 Q1014 BLU
  • 221255Z AUTO 21005KT 110V250 9999 BKN047 BKN350 19/07 Q1015 BLU
  • 221225Z AUTO 22005KT 180V290 9999 OVC270 19/08 Q1015 BLU

TAF TAF EHLW
Valid from the 22 at 13:00 until the 23 at 01:00 UTC


221245Z 2213/2301 26006KT 9999 FEW040
BECMG 2213/2216 03008KT



MET'MAP, your aeronautical weather chart ! - Copyright ORBIFLY December 2007 - Disclaimer

ORBIFLY MET'MAP TEAM :

Programming & Development : Alexandra Zaïnal
Original concept : Baudouin d'Aumeries
Technical & hardware support : Manuel Goepfert
Assistance : Marc-Olivier Méhu

Contact : metmap@orbifly.com




SOURCES & CREDITS :

   NOAA